Time;durP1;ratioP1;P1;durP2;ratioP2;P2;SDS_P1;SDS_P2;PMS_P1;PMS_P2;Temp;Humidity;BMP_temperature;BMP_pressure;BME280_temperature;BME280_humidity;BME280_pressure;Samples;Min_cycle;Max_cycle;Signal;HPM_P1;HPM_P2
2022/04/12 00:00:54;;;;;;;;;;;9.30;98.30;;;;;;5074958;28;19962;-71
2022/04/12 00:03:20;;;;;;;;;;;9.30;98.30;;;;;;5074680;28;19917;-71
2022/04/12 00:05:46;;;;;;;;;;;9.30;98.40;;;;;;5074254;28;19916;-71
2022/04/12 00:08:11;;;;;;;;;;;9.30;98.40;;;;;;5073556;28;19912;-70
2022/04/12 00:10:37;;;;;;;;;;;9.20;98.40;;;;;;5058910;28;19933;-71
2022/04/12 00:13:03;;;;;;;;;;;9.20;98.60;;;;;;5078694;28;19920;-71
2022/04/12 00:15:28;;;;;;;;;;;9.20;98.50;;;;;;5078021;28;19929;-71
2022/04/12 00:20:39;;;;;;;;;;;9.30;98.50;;;;;;5079096;28;19962;-71
2022/04/12 00:23:04;;;;;;;;;;;9.20;98.50;;;;;;5060673;28;19945;-71
2022/04/12 00:25:30;;;;;;;;;;;9.20;98.30;;;;;;5078700;28;19936;-71
2022/04/12 00:27:57;;;;;;;;;;;9.30;98.40;;;;;;5076431;28;19956;-71
2022/04/12 00:30:24;;;;;;;;;;;9.30;98.50;;;;;;5077205;28;19913;-71
2022/04/12 00:32:50;;;;;;;;;;;9.20;98.50;;;;;;5078487;28;19924;-71
2022/04/12 00:35:16;;;;;;;;;;;9.20;98.50;;;;;;5060516;28;19916;-71
2022/04/12 00:37:42;;;;;;;;;;;9.20;98.50;;;;;;5078092;28;19912;-71
2022/04/12 00:40:08;;;;;;;;;;;9.20;98.60;;;;;;5078586;28;20109;-72
2022/04/12 00:42:33;;;;;;;;;;;9.20;98.90;;;;;;5075083;28;19917;-71
2022/04/12 00:44:59;;;;;;;;;;;9.10;98.90;;;;;;5070696;28;19939;-71
2022/04/12 00:47:25;;;;;;;;;;;9.10;98.90;;;;;;5077872;28;19958;-71
2022/04/12 00:49:50;;;;;;;;;;;9.10;99.20;;;;;;5078133;28;19916;-71
2022/04/12 00:52:19;;;;;;;;;;;9.10;99.00;;;;;;5077709;28;20210;-70
2022/04/12 00:54:45;;;;;;;;;;;9.10;99.30;;;;;;5078137;28;20009;-71
2022/04/12 00:57:11;;;;;;;;;;;9.20;99.50;;;;;;5078057;28;19912;-71
2022/04/12 00:59:37;;;;;;;;;;;9.20;99.40;;;;;;5077207;28;19919;-71
2022/04/12 01:02:03;;;;;;;;;;;9.20;99.40;;;;;;5077692;28;19913;-71
2022/04/12 01:04:29;;;;;;;;;;;9.10;99.50;;;;;;5074186;28;19927;-71
2022/04/12 01:06:54;;;;;;;;;;;9.10;99.80;;;;;;5074832;28;19930;-70
2022/04/12 01:09:22;;;;;;;;;;;9.10;99.90;;;;;;5074377;28;20008;-71
2022/04/12 01:11:48;;;;;;;;;;;9.00;99.90;;;;;;5074840;28;19913;-71
2022/04/12 01:14:15;;;;;;;;;;;9.00;99.90;;;;;;5076490;28;19916;-71
2022/04/12 01:16:40;;;;;;;;;;;9.00;99.90;;;;;;5039007;28;19928;-71
2022/04/12 01:19:06;;;;;;;;;;;8.90;99.90;;;;;;5076156;28;20342;-71
2022/04/12 01:21:35;;;;;;;;;;;8.80;99.90;;;;;;5058214;28;19913;-71
2022/04/12 01:24:01;;;;;;;;;;;8.80;99.90;;;;;;5057986;28;20007;-71
2022/04/12 01:26:26;;;;;;;;;;;8.80;99.90;;;;;;5057384;28;19927;-71
2022/04/12 01:28:52;;;;;;;;;;;8.80;99.90;;;;;;5075287;28;20208;-71
2022/04/12 01:31:18;;;;;;;;;;;8.80;99.90;;;;;;5075466;28;20038;-71
2022/04/12 01:33:43;;;;;;;;;;;8.70;99.90;;;;;;5075757;28;19917;-71
2022/04/12 01:36:09;;;;;;;;;;;8.70;99.90;;;;;;5075934;28;19923;-71
2022/04/12 01:38:35;;;;;;;;;;;8.70;99.90;;;;;;5057206;28;20381;-71
2022/04/12 01:41:02;;;;;;;;;;;8.70;99.90;;;;;;5075033;28;19995;-71
2022/04/12 01:43:28;;;;;;;;;;;8.70;99.90;;;;;;5076083;28;19920;-71
2022/04/12 01:45:53;;;;;;;;;;;8.70;99.90;;;;;;5075766;28;20374;-71
2022/04/12 01:48:19;;;;;;;;;;;8.60;99.90;;;;;;5075468;28;20199;-71
2022/04/12 01:50:44;;;;;;;;;;;8.60;99.90;;;;;;5075473;28;20270;-71
2022/04/12 01:53:10;;;;;;;;;;;8.60;99.90;;;;;;5075443;28;19918;-71
2022/04/12 01:55:35;;;;;;;;;;;8.60;99.90;;;;;;5075407;28;20003;-77
2022/04/12 01:58:01;;;;;;;;;;;8.60;99.90;;;;;;5057350;28;19963;-76
2022/04/12 02:00:27;;;;;;;;;;;8.60;99.90;;;;;;5074011;28;19969;-77
2022/04/12 02:02:52;;;;;;;;;;;8.60;99.90;;;;;;5057634;28;20274;-71
2022/04/12 02:05:20;;;;;;;;;;;8.50;99.90;;;;;;5048781;28;20219;-71
2022/04/12 02:07:45;;;;;;;;;;;8.60;99.90;;;;;;5057319;28;19970;-71
2022/04/12 02:10:11;;;;;;;;;;;8.50;99.90;;;;;;5073269;28;19924;-71
2022/04/12 02:12:37;;;;;;;;;;;8.50;99.90;;;;;;5071244;28;19923;-71
2022/04/12 02:15:04;;;;;;;;;;;8.50;99.90;;;;;;5056308;28;20633;-71
2022/04/12 02:17:29;;;;;;;;;;;8.50;99.90;;;;;;5074190;28;19920;-71
2022/04/12 02:19:55;;;;;;;;;;;8.50;99.90;;;;;;5073443;28;19913;-71
2022/04/12 02:22:20;;;;;;;;;;;8.50;99.90;;;;;;5074235;28;19916;-71
2022/04/12 02:24:46;;;;;;;;;;;8.40;99.90;;;;;;5074377;28;20207;-71
2022/04/12 02:27:12;;;;;;;;;;;8.30;99.90;;;;;;5075412;28;19965;-70
2022/04/12 02:29:37;;;;;;;;;;;8.20;99.90;;;;;;5074680;28;20017;-71
2022/04/12 02:32:03;;;;;;;;;;;8.20;99.90;;;;;;5073646;28;20073;-71
2022/04/12 02:34:29;;;;;;;;;;;8.10;99.90;;;;;;5055379;28;19923;-71
2022/04/12 02:36:55;;;;;;;;;;;8.00;99.90;;;;;;5055267;28;20355;-71
2022/04/12 02:39:20;;;;;;;;;;;8.00;99.90;;;;;;5073146;28;20005;-71
2022/04/12 02:41:46;;;;;;;;;;;7.90;99.90;;;;;;5073217;28;20231;-72
2022/04/12 02:44:11;;;;;;;;;;;7.90;99.90;;;;;;5056103;28;19921;-71
2022/04/12 02:46:37;;;;;;;;;;;7.90;99.90;;;;;;5073470;28;19917;-71
2022/04/12 02:49:03;;;;;;;;;;;7.80;99.90;;;;;;5074181;28;19916;-71
2022/04/12 02:51:28;;;;;;;;;;;7.80;99.90;;;;;;5073062;28;20003;-71
2022/04/12 02:53:54;;;;;;;;;;;7.80;99.90;;;;;;5072805;28;19912;-71
2022/04/12 02:56:19;;;;;;;;;;;7.80;99.90;;;;;;5071614;28;20007;-71
2022/04/12 02:58:45;;;;;;;;;;;7.80;99.90;;;;;;5055551;28;19913;-71
2022/04/12 03:01:10;;;;;;;;;;;7.80;99.90;;;;;;5073794;28;19917;-71
2022/04/12 03:03:36;;;;;;;;;;;7.70;99.90;;;;;;5073262;28;19966;-70
2022/04/12 03:06:02;;;;;;;;;;;7.70;99.90;;;;;;5063714;28;19916;-71
2022/04/12 03:08:27;;;;;;;;;;;7.60;99.90;;;;;;5063897;28;19924;-71
2022/04/12 03:10:53;;;;;;;;;;;7.70;99.90;;;;;;5073087;28;19946;-71
2022/04/12 03:13:19;;;;;;;;;;;7.60;99.90;;;;;;5073384;28;19970;-71
2022/04/12 03:15:44;;;;;;;;;;;7.60;99.90;;;;;;5072922;28;19970;-71
2022/04/12 03:18:10;;;;;;;;;;;7.60;99.90;;;;;;5071950;28;19912;-71
2022/04/12 03:20:36;;;;;;;;;;;7.60;99.90;;;;;;5073467;28;19962;-71
2022/04/12 03:23:01;;;;;;;;;;;7.60;99.90;;;;;;5072955;28;20231;-71
2022/04/12 03:25:27;;;;;;;;;;;7.60;99.90;;;;;;5073826;28;20034;-71
2022/04/12 03:27:52;;;;;;;;;;;7.50;99.90;;;;;;5073555;28;19920;-71
2022/04/12 03:30:18;;;;;;;;;;;7.50;99.90;;;;;;5055882;28;19921;-70
2022/04/12 03:32:43;;;;;;;;;;;7.50;99.90;;;;;;5074209;28;19922;-70
2022/04/12 03:35:09;;;;;;;;;;;7.40;99.90;;;;;;5073482;28;19990;-71
2022/04/12 03:37:35;;;;;;;;;;;7.50;99.90;;;;;;5073818;28;19912;-71
2022/04/12 03:40:01;;;;;;;;;;;7.60;99.90;;;;;;5056018;28;19920;-71
2022/04/12 03:42:26;;;;;;;;;;;7.50;99.90;;;;;;5073694;28;19916;-71
2022/04/12 03:44:52;;;;;;;;;;;7.60;99.90;;;;;;5076385;28;19912;-71
2022/04/12 03:47:18;;;;;;;;;;;7.70;99.90;;;;;;5059587;28;20024;-71
2022/04/12 03:49:43;;;;;;;;;;;7.60;99.90;;;;;;5060145;28;19974;-76
2022/04/12 03:52:09;;;;;;;;;;;7.60;99.90;;;;;;5074447;28;19917;-71
2022/04/12 03:54:35;;;;;;;;;;;7.60;99.90;;;;;;5077565;28;19956;-71
2022/04/12 03:57:01;;;;;;;;;;;7.60;99.90;;;;;;5060258;28;20002;-71
2022/04/12 03:59:26;;;;;;;;;;;7.60;99.90;;;;;;5077181;28;19913;-71
2022/04/12 04:01:52;;;;;;;;;;;7.50;99.90;;;;;;5077528;28;20012;-71
2022/04/12 04:04:18;;;;;;;;;;;7.60;99.90;;;;;;5076115;28;19920;-71
2022/04/12 04:06:44;;;;;;;;;;;7.60;99.90;;;;;;5068306;28;19916;-71
2022/04/12 04:09:09;;;;;;;;;;;7.70;99.90;;;;;;5059768;28;19935;-71
2022/04/12 04:11:38;;;;;;;;;;;7.70;99.90;;;;;;5076917;28;19963;-71
2022/04/12 04:14:04;;;;;;;;;;;7.80;99.90;;;;;;5077536;28;19966;-71
2022/04/12 04:16:30;;;;;;;;;;;7.70;99.90;;;;;;5050739;28;19924;-71
2022/04/12 04:18:55;;;;;;;;;;;7.80;99.90;;;;;;5076881;28;19920;-71
2022/04/12 04:21:21;;;;;;;;;;;7.90;99.90;;;;;;5076597;28;20316;-72
2022/04/12 04:23:46;;;;;;;;;;;7.90;99.90;;;;;;5074981;28;19913;-71
2022/04/12 04:26:12;;;;;;;;;;;7.90;99.90;;;;;;5075875;28;19913;-71
2022/04/12 04:28:41;;;;;;;;;;;7.90;99.90;;;;;;5077420;28;19919;-71
2022/04/12 04:31:07;;;;;;;;;;;8.00;99.90;;;;;;5059386;28;20222;-71
2022/04/12 04:33:32;;;;;;;;;;;8.00;99.90;;;;;;5077419;28;19912;-71
2022/04/12 04:35:58;;;;;;;;;;;8.00;99.90;;;;;;5076556;28;20230;-71
2022/04/12 04:38:24;;;;;;;;;;;8.00;99.90;;;;;;5075906;28;19916;-71
2022/04/12 04:40:49;;;;;;;;;;;8.00;99.90;;;;;;5077137;28;19920;-71
2022/04/12 04:43:15;;;;;;;;;;;8.00;99.90;;;;;;5073283;28;19952;-71
2022/04/12 04:45:43;;;;;;;;;;;8.00;99.90;;;;;;5071517;28;19912;-72
2022/04/12 04:48:09;;;;;;;;;;;7.90;99.90;;;;;;5074034;28;19917;-71
2022/04/12 04:50:35;;;;;;;;;;;7.80;99.90;;;;;;5073679;28;19913;-71
2022/04/12 04:53:04;;;;;;;;;;;7.80;99.90;;;;;;5057410;28;20404;-71
2022/04/12 04:55:30;;;;;;;;;;;7.80;99.90;;;;;;5055537;28;20034;-71
2022/04/12 04:57:57;;;;;;;;;;;7.70;99.90;;;;;;5074117;28;21250;-71
2022/04/12 05:00:25;;;;;;;;;;;7.70;99.90;;;;;;5072639;28;19956;-71
2022/04/12 05:02:52;;;;;;;;;;;7.60;99.90;;;;;;5040091;28;20011;-71
2022/04/12 05:05:17;;;;;;;;;;;7.60;99.90;;;;;;5069229;28;19972;-71
2022/04/12 05:07:47;;;;;;;;;;;7.60;99.90;;;;;;5072001;28;19951;-72
2022/04/12 05:10:15;;;;;;;;;;;7.50;99.90;;;;;;5074861;28;19920;-71
2022/04/12 05:12:40;;;;;;;;;;;7.50;99.90;;;;;;5075152;28;19919;-72
2022/04/12 05:15:06;;;;;;;;;;;7.50;99.90;;;;;;5057648;28;19916;-71
2022/04/12 05:17:32;;;;;;;;;;;7.40;99.90;;;;;;5046591;28;19917;-71
2022/04/12 05:19:57;;;;;;;;;;;7.40;99.90;;;;;;5066327;28;19927;-71
2022/04/12 05:22:23;;;;;;;;;;;7.50;99.90;;;;;;5067175;28;19916;-71
2022/04/12 05:24:49;;;;;;;;;;;7.40;99.90;;;;;;5058692;28;19920;-71
2022/04/12 05:27:15;;;;;;;;;;;7.50;99.90;;;;;;5068719;28;19944;-71
2022/04/12 05:29:40;;;;;;;;;;;7.50;99.90;;;;;;5055731;28;19974;-71
2022/04/12 05:32:06;;;;;;;;;;;7.50;99.90;;;;;;5074080;28;19912;-72
2022/04/12 05:34:32;;;;;;;;;;;7.50;99.90;;;;;;5074470;28;19913;-71
2022/04/12 05:36:57;;;;;;;;;;;7.50;99.90;;;;;;5074172;28;19920;-71
2022/04/12 05:39:23;;;;;;;;;;;7.50;99.90;;;;;;5056704;28;19916;-71
2022/04/12 05:41:48;;;;;;;;;;;7.50;99.90;;;;;;5075631;28;19923;-71
2022/04/12 05:44:14;;;;;;;;;;;7.50;99.90;;;;;;5075671;28;19920;-71
2022/04/12 05:46:39;;;;;;;;;;;7.50;99.90;;;;;;5075116;28;19916;-76
2022/04/12 05:49:05;;;;;;;;;;;7.60;99.90;;;;;;5075532;28;19913;-71
2022/04/12 05:51:31;;;;;;;;;;;7.60;99.90;;;;;;5075558;28;20000;-71
2022/04/12 05:53:56;;;;;;;;;;;7.60;99.90;;;;;;5075249;28;19913;-71
2022/04/12 05:56:22;;;;;;;;;;;7.70;99.90;;;;;;5074468;28;19916;-71
2022/04/12 05:58:48;;;;;;;;;;;7.80;99.90;;;;;;5073581;28;19928;-71
2022/04/12 06:01:13;;;;;;;;;;;7.90;99.90;;;;;;5057651;28;20007;-71
2022/04/12 06:03:39;;;;;;;;;;;8.00;99.90;;;;;;5074587;28;19919;-71
2022/04/12 06:06:04;;;;;;;;;;;8.10;99.90;;;;;;5075403;28;19960;-71
2022/04/12 06:08:30;;;;;;;;;;;8.20;99.90;;;;;;5072808;28;19913;-72
2022/04/12 06:10:55;;;;;;;;;;;8.20;99.90;;;;;;5073271;28;20465;-71
2022/04/12 06:13:21;;;;;;;;;;;8.30;99.90;;;;;;5074783;28;19912;-72
2022/04/12 06:15:46;;;;;;;;;;;8.30;99.90;;;;;;5056031;28;19962;-71
2022/04/12 06:18:12;;;;;;;;;;;8.30;99.90;;;;;;5075295;28;20203;-71
2022/04/12 06:20:38;;;;;;;;;;;8.40;99.90;;;;;;5070705;28;20413;-71
2022/04/12 06:23:04;;;;;;;;;;;8.50;99.90;;;;;;5069251;28;19916;-71
2022/04/12 06:25:30;;;;;;;;;;;8.60;99.90;;;;;;5061264;28;19920;-71
2022/04/12 06:27:55;;;;;;;;;;;8.70;99.90;;;;;;5066712;28;19912;-71
2022/04/12 06:30:22;;;;;;;;;;;8.80;99.90;;;;;;5070032;28;19963;-71
2022/04/12 06:32:48;;;;;;;;;;;8.90;99.90;;;;;;5072437;28;19916;-71
2022/04/12 06:35:13;;;;;;;;;;;9.00;99.90;;;;;;5075039;28;20352;-71
2022/04/12 06:37:40;;;;;;;;;;;9.10;99.90;;;;;;5073890;28;19920;-71
2022/04/12 06:40:07;;;;;;;;;;;9.30;99.90;;;;;;5056750;28;19913;-71
2022/04/12 06:42:32;;;;;;;;;;;9.50;99.90;;;;;;5073925;28;19917;-71
2022/04/12 06:44:58;;;;;;;;;;;9.60;99.90;;;;;;5074701;28;19923;-71
2022/04/12 06:47:24;;;;;;;;;;;9.90;99.90;;;;;;5074337;28;20319;-71
2022/04/12 06:49:50;;;;;;;;;;;10.30;99.90;;;;;;5073540;28;19927;-71
2022/04/12 06:52:16;;;;;;;;;;;10.60;99.90;;;;;;5054753;28;19959;-72
2022/04/12 06:54:42;;;;;;;;;;;11.00;99.90;;;;;;5074303;28;20306;-71
2022/04/12 06:57:08;;;;;;;;;;;11.50;99.90;;;;;;5074390;28;20038;-71
2022/04/12 06:59:34;;;;;;;;;;;11.80;99.90;;;;;;5074028;28;19923;-70
2022/04/12 07:02:01;;;;;;;;;;;12.10;99.90;;;;;;5072317;28;19916;-71
2022/04/12 07:04:28;;;;;;;;;;;12.10;99.90;;;;;;5055840;28;20273;-70
2022/04/12 07:06:54;;;;;;;;;;;12.30;99.90;;;;;;5074231;28;20299;-71
2022/04/12 07:09:20;;;;;;;;;;;12.50;99.90;;;;;;5072893;28;19913;-72
2022/04/12 07:11:46;;;;;;;;;;;12.90;99.90;;;;;;5068808;28;19963;-72
2022/04/12 07:14:12;;;;;;;;;;;13.10;99.60;;;;;;5072327;28;19955;-72
2022/04/12 07:16:37;;;;;;;;;;;13.20;99.10;;;;;;5053587;28;19964;-72
2022/04/12 07:19:04;;;;;;;;;;;13.00;98.80;;;;;;5067320;28;19916;-72
2022/04/12 07:21:31;;;;;;;;;;;13.10;99.30;;;;;;5068404;28;19913;-71
2022/04/12 07:23:59;;;;;;;;;;;13.20;99.90;;;;;;5071655;28;19919;-71
2022/04/12 07:26:25;;;;;;;;;;;13.30;99.20;;;;;;5074103;28;19921;-77
2022/04/12 07:28:50;;;;;;;;;;;13.40;98.90;;;;;;5058068;28;19913;-72
2022/04/12 07:31:16;;;;;;;;;;;13.40;99.30;;;;;;5064007;28;20030;-72
2022/04/12 07:33:41;;;;;;;;;;;13.70;99.10;;;;;;5066554;28;19920;-72
2022/04/12 07:36:07;;;;;;;;;;;13.90;98.50;;;;;;5072026;28;19973;-72
2022/04/12 07:38:32;;;;;;;;;;;14.00;98.30;;;;;;5066372;28;19913;-71
2022/04/12 07:40:58;;;;;;;;;;;14.10;98.80;;;;;;5070969;28;19917;-72
2022/04/12 07:43:23;;;;;;;;;;;14.10;98.20;;;;;;5065394;28;20319;-72
2022/04/12 07:45:49;;;;;;;;;;;14.20;98.20;;;;;;5065460;28;19912;-71
2022/04/12 07:48:14;;;;;;;;;;;14.40;98.00;;;;;;5073890;28;20188;-72
2022/04/12 07:50:40;;;;;;;;;;;14.20;97.20;;;;;;5056074;28;20384;-72
2022/04/12 07:53:05;;;;;;;;;;;14.20;97.90;;;;;;5052681;28;19920;-72
2022/04/12 07:55:31;;;;;;;;;;;14.30;97.40;;;;;;5067736;28;19920;-72
2022/04/12 07:57:57;;;;;;;;;;;14.50;97.30;;;;;;5066556;28;19913;-72
2022/04/12 08:00:23;;;;;;;;;;;14.70;97.30;;;;;;5065268;28;19916;-72
2022/04/12 08:02:49;;;;;;;;;;;14.90;97.00;;;;;;5067201;28;19920;-72
2022/04/12 08:05:14;;;;;;;;;;;15.00;96.30;;;;;;5065636;28;19913;-72
2022/04/12 08:07:47;;;;;;;;;;;15.10;96.60;;;;;;5065752;28;19978;-71
2022/04/12 08:10:19;;;;;;;;;;;15.10;96.20;;;;;;5048068;28;19928;-72
2022/04/12 08:12:46;;;;;;;;;;;15.20;96.50;;;;;;5063169;28;19916;-72
2022/04/12 08:15:12;;;;;;;;;;;15.30;95.40;;;;;;5065316;28;20339;-72
2022/04/12 08:17:38;;;;;;;;;;;15.20;95.60;;;;;;5053750;28;19916;-72
2022/04/12 08:20:05;;;;;;;;;;;15.30;95.70;;;;;;5062913;28;20227;-72
2022/04/12 08:22:31;;;;;;;;;;;15.40;95.20;;;;;;5064564;28;19924;-72
2022/04/12 08:24:57;;;;;;;;;;;15.40;95.10;;;;;;5072391;28;20002;-72
2022/04/12 08:27:22;;;;;;;;;;;15.40;95.40;;;;;;5072483;28;19929;-72
2022/04/12 08:29:48;;;;;;;;;;;15.50;95.10;;;;;;5072948;28;19940;-73
2022/04/12 08:32:14;;;;;;;;;;;15.60;95.50;;;;;;5075961;28;19916;-72
2022/04/12 08:34:39;;;;;;;;;;;15.60;95.50;;;;;;5070155;28;19919;-72
2022/04/12 08:37:08;;;;;;;;;;;15.70;94.90;;;;;;5060582;28;20142;-72
2022/04/12 08:39:33;;;;;;;;;;;15.80;95.10;;;;;;5076171;28;19916;-72
2022/04/12 08:42:00;;;;;;;;;;;16.00;95.70;;;;;;5075028;28;20269;-72
2022/04/12 08:44:26;;;;;;;;;;;16.10;95.30;;;;;;5072264;28;19970;-72
2022/04/12 08:46:53;;;;;;;;;;;16.20;95.90;;;;;;5068794;28;19970;-71
2022/04/12 08:49:20;;;;;;;;;;;16.40;95.80;;;;;;5058720;28;19928;-71
2022/04/12 08:51:46;;;;;;;;;;;16.60;95.50;;;;;;5056519;28;19921;-71
2022/04/12 08:54:11;;;;;;;;;;;16.90;94.80;;;;;;5068552;28;19923;-72
2022/04/12 08:56:37;;;;;;;;;;;17.30;94.70;;;;;;5061468;28;20314;-72
2022/04/12 08:59:03;;;;;;;;;;;17.70;93.30;;;;;;5057031;28;20123;-72
2022/04/12 09:01:28;;;;;;;;;;;17.70;93.30;;;;;;5065857;28;19912;-72
2022/04/12 09:03:54;;;;;;;;;;;17.70;93.30;;;;;;5067019;28;19913;-72
2022/04/12 09:06:20;;;;;;;;;;;17.80;92.70;;;;;;5060833;28;19913;-71
2022/04/12 09:08:45;;;;;;;;;;;18.00;93.40;;;;;;5057601;28;19909;-72
2022/04/12 09:11:13;;;;;;;;;;;18.00;92.90;;;;;;5072930;28;19927;-72
2022/04/12 09:13:40;;;;;;;;;;;18.00;92.20;;;;;;5077820;28;19934;-72
2022/04/12 09:16:09;;;;;;;;;;;18.20;92.40;;;;;;5077721;28;19962;-72
2022/04/12 09:18:39;;;;;;;;;;;18.40;92.80;;;;;;5060090;28;19916;-72
2022/04/12 09:21:23;;;;;;;;;;;18.50;91.40;;;;;;5076619;28;19916;-72
2022/04/12 09:23:50;;;;;;;;;;;18.50;92.70;;;;;;5045745;28;19929;-72
2022/04/12 09:26:17;;;;;;;;;;;18.80;92.70;;;;;;5065086;28;19917;-71
2022/04/12 09:28:42;;;;;;;;;;;19.10;91.50;;;;;;5056477;28;19912;-73
2022/04/12 09:31:12;;;;;;;;;;;19.10;92.30;;;;;;5075714;28;19928;-72
2022/04/12 09:33:37;;;;;;;;;;;19.40;92.10;;;;;;5074655;28;20184;-72
2022/04/12 09:36:04;;;;;;;;;;;19.40;91.40;;;;;;5057316;28;19978;-73
2022/04/12 09:38:31;;;;;;;;;;;19.50;91.30;;;;;;5058133;28;20311;-72
2022/04/12 09:41:11;;;;;;;;;;;19.70;90.90;;;;;;5071557;28;20195;-72
2022/04/12 09:43:40;;;;;;;;;;;19.60;90.30;;;;;;5069607;28;20199;-72
2022/04/12 09:46:06;;;;;;;;;;;19.50;91.10;;;;;;5072655;28;19991;-72
2022/04/12 09:48:34;;;;;;;;;;;19.40;88.30;;;;;;5073725;28;19912;-72
2022/04/12 09:51:00;;;;;;;;;;;19.40;90.30;;;;;;5057388;28;19931;-72
2022/04/12 09:53:36;;;;;;;;;;;19.40;90.80;;;;;;5053478;28;19961;-72
2022/04/12 09:56:13;;;;;;;;;;;19.70;91.50;;;;;;5074776;28;19924;-72
2022/04/12 09:58:39;;;;;;;;;;;20.00;91.00;;;;;;5055499;28;19927;-72
2022/04/12 10:01:05;;;;;;;;;;;20.40;90.20;;;;;;5074521;28;19923;-72
2022/04/12 10:03:31;;;;;;;;;;;20.40;89.50;;;;;;5056918;28;19917;-72
2022/04/12 10:05:57;;;;;;;;;;;20.40;91.30;;;;;;5074107;28;19958;-72
2022/04/12 10:08:24;;;;;;;;;;;20.80;90.00;;;;;;5072599;28;20055;-72
2022/04/12 10:10:50;;;;;;;;;;;20.90;87.60;;;;;;5072550;28;19928;-72
2022/04/12 10:13:16;;;;;;;;;;;20.90;86.90;;;;;;5074739;28;19912;-72
2022/04/12 10:15:42;;;;;;;;;;;20.90;87.50;;;;;;5074398;28;20329;-72
2022/04/12 10:18:08;;;;;;;;;;;21.00;86.00;;;;;;5074523;28;19920;-72
2022/04/12 10:20:33;;;;;;;;;;;20.80;88.80;;;;;;5073335;28;19916;-72
2022/04/12 10:22:59;;;;;;;;;;;20.90;86.90;;;;;;5073919;28;20447;-72
2022/04/12 10:25:26;;;;;;;;;;;21.00;87.30;;;;;;5073012;28;19920;-72
2022/04/12 10:27:53;;;;;;;;;;;21.20;86.10;;;;;;5073723;28;19913;-72
2022/04/12 10:30:18;;;;;;;;;;;21.30;85.50;;;;;;5072326;28;20008;-72
2022/04/12 10:32:57;;;;;;;;;;;21.30;84.80;;;;;;5055036;28;19999;-72
2022/04/12 10:35:22;;;;;;;;;;;21.20;85.10;;;;;;5072944;28;19916;-72
2022/04/12 10:37:49;;;;;;;;;;;21.30;87.90;;;;;;5073805;28;20389;-71
2022/04/12 10:40:14;;;;;;;;;;;21.20;87.30;;;;;;5057160;28;20689;-71
2022/04/12 10:42:40;;;;;;;;;;;20.60;86.70;;;;;;5073246;28;19969;-72
2022/04/12 10:45:06;;;;;;;;;;;20.40;90.50;;;;;;5073924;28;19955;-77
2022/04/12 10:47:36;;;;;;;;;;;20.60;89.20;;;;;;5052311;28;20299;-72
2022/04/12 10:50:03;;;;;;;;;;;20.90;88.80;;;;;;5069120;28;19970;-72
2022/04/12 10:52:36;;;;;;;;;;;21.10;87.30;;;;;;5064982;28;19925;-72
2022/04/12 10:55:05;;;;;;;;;;;21.10;86.30;;;;;;5069590;28;19974;-72
2022/04/12 10:57:31;;;;;;;;;;;20.90;89.40;;;;;;5069182;28;19966;-72
2022/04/12 11:00:01;;;;;;;;;;;21.10;89.50;;;;;;5072008;28;20251;-72
2022/04/12 11:02:30;;;;;;;;;;;21.30;87.20;;;;;;5069538;28;19951;-72
2022/04/12 11:04:56;;;;;;;;;;;21.20;89.10;;;;;;5068513;28;19999;-72
2022/04/12 11:07:35;;;;;;;;;;;21.00;88.20;;;;;;5067169;28;20004;-72
2022/04/12 11:10:13;;;;;;;;;;;21.00;88.70;;;;;;5066703;28;19924;-72
2022/04/12 11:12:42;;;;;;;;;;;20.90;87.40;;;;;;5069965;28;20008;-73
2022/04/12 11:15:20;;;;;;;;;;;20.70;88.40;;;;;;5070097;28;20015;-72
2022/04/12 11:17:46;;;;;;;;;;;20.50;89.90;;;;;;5071479;28;19924;-72
2022/04/12 11:20:19;;;;;;;;;;;20.40;89.10;;;;;;5069314;28;19916;-72
2022/04/12 11:22:54;;;;;;;;;;;20.20;89.40;;;;;;5068439;28;20022;-77
2022/04/12 11:25:21;;;;;;;;;;;20.20;90.40;;;;;;5068992;28;19920;-72
2022/04/12 11:27:49;;;;;;;;;;;20.20;90.10;;;;;;5067149;28;19916;-72
2022/04/12 11:30:14;;;;;;;;;;;20.00;90.00;;;;;;5066293;28;19919;-71
2022/04/12 11:32:43;;;;;;;;;;;19.90;89.80;;;;;;5070089;28;19920;-72
2022/04/12 11:35:09;;;;;;;;;;;19.80;90.40;;;;;;5052844;28;19925;-71
2022/04/12 11:37:38;;;;;;;;;;;19.80;90.50;;;;;;5073007;28;20294;-72
2022/04/12 11:40:04;;;;;;;;;;;19.70;90.70;;;;;;5071655;28;20326;-72
2022/04/12 11:42:30;;;;;;;;;;;19.80;91.20;;;;;;5071452;28;19913;-72
2022/04/12 11:44:57;;;;;;;;;;;19.80;90.60;;;;;;5073602;28;19919;-71
2022/04/12 11:47:32;;;;;;;;;;;19.70;90.70;;;;;;5072902;28;20005;-71
2022/04/12 11:49:58;;;;;;;;;;;19.60;91.00;;;;;;5071949;28;19963;-71
2022/04/12 11:52:25;;;;;;;;;;;19.50;91.00;;;;;;5069226;28;19923;-72
2022/04/12 11:54:50;;;;;;;;;;;19.30;90.90;;;;;;5070182;28;19913;-71
2022/04/12 11:57:21;;;;;;;;;;;19.30;90.90;;;;;;5072199;28;20047;-71
2022/04/12 12:00:00;;;;;;;;;;;19.30;91.00;;;;;;5054052;28;19920;-71
2022/04/12 12:02:27;;;;;;;;;;;19.30;92.50;;;;;;5072191;28;19912;-71
2022/04/12 12:04:54;;;;;;;;;;;19.50;91.50;;;;;;5069015;28;19921;-71
2022/04/12 12:07:19;;;;;;;;;;;19.80;91.30;;;;;;5074055;28;20218;-71
2022/04/12 12:09:53;;;;;;;;;;;20.10;91.60;;;;;;5075358;28;20047;-71
2022/04/12 12:12:18;;;;;;;;;;;20.50;91.60;;;;;;5076933;28;20311;-71
2022/04/12 12:14:44;;;;;;;;;;;20.60;91.70;;;;;;5075614;28;20003;-70
2022/04/12 12:17:12;;;;;;;;;;;20.70;90.30;;;;;;5075924;28;19916;-72
2022/04/12 12:19:38;;;;;;;;;;;20.70;89.70;;;;;;5077026;28;19925;-71
2022/04/12 12:22:05;;;;;;;;;;;20.80;90.50;;;;;;5075969;28;20039;-71
2022/04/12 12:24:34;;;;;;;;;;;21.10;90.80;;;;;;5059310;28;19912;-71
2022/04/12 12:27:00;;;;;;;;;;;21.20;90.40;;;;;;5076317;28;19917;-72
2022/04/12 12:29:26;;;;;;;;;;;21.30;90.10;;;;;;5076562;28;19913;-71
2022/04/12 12:31:57;;;;;;;;;;;21.30;89.40;;;;;;5076421;28;20187;-71
2022/04/12 12:34:27;;;;;;;;;;;21.20;90.30;;;;;;5076540;28;20432;-72
2022/04/12 12:36:52;;;;;;;;;;;21.20;87.90;;;;;;5058153;28;19921;-72
2022/04/12 12:39:19;;;;;;;;;;;21.20;89.90;;;;;;5074908;28;19927;-71
2022/04/12 12:41:44;;;;;;;;;;;21.40;90.10;;;;;;5075305;28;20223;-71
2022/04/12 12:44:10;;;;;;;;;;;21.30;90.10;;;;;;5074081;28;19917;-71
2022/04/12 12:46:37;;;;;;;;;;;21.40;90.10;;;;;;5076370;28;20001;-79
2022/04/12 12:49:10;;;;;;;;;;;21.60;90.10;;;;;;5058724;28;20062;-71
2022/04/12 12:51:37;;;;;;;;;;;21.60;90.10;;;;;;5071563;28;20200;-72
2022/04/12 12:54:03;;;;;;;;;;;21.70;88.90;;;;;;5075822;28;19920;-71
2022/04/12 12:56:33;;;;;;;;;;;21.80;89.50;;;;;;5057882;28;19928;-71
2022/04/12 12:59:14;;;;;;;;;;;21.90;88.80;;;;;;5075955;28;19928;-72
2022/04/12 13:01:50;;;;;;;;;;;22.00;88.40;;;;;;5057848;28;19916;-71
2022/04/12 13:04:26;;;;;;;;;;;22.10;88.40;;;;;;5072787;28;19920;-71
2022/04/12 13:07:18;;;;;;;;;;;22.20;89.10;;;;;;5045745;28;19917;-71
2022/04/12 13:09:47;;;;;;;;;;;22.50;87.10;;;;;;5066510;28;19920;-71
2022/04/12 13:12:13;;;;;;;;;;;22.30;86.10;;;;;;5077285;28;19958;-71
2022/04/12 13:14:42;;;;;;;;;;;22.30;88.60;;;;;;5074103;28;20211;-71
2022/04/12 13:17:08;;;;;;;;;;;22.30;85.90;;;;;;5062657;28;19948;-71
2022/04/12 13:19:34;;;;;;;;;;;22.40;87.60;;;;;;5063930;28;19952;-71
2022/04/12 13:21:59;;;;;;;;;;;22.50;89.70;;;;;;5069952;28;19916;-72
2022/04/12 13:24:29;;;;;;;;;;;22.80;90.30;;;;;;5066209;28;19913;-72
2022/04/12 13:26:56;;;;;;;;;;;23.00;87.60;;;;;;5064896;28;20026;-71
2022/04/12 13:29:22;;;;;;;;;;;23.00;88.60;;;;;;5061484;28;20303;-71
2022/04/12 13:31:48;;;;;;;;;;;23.10;89.50;;;;;;5062343;28;19912;-72
2022/04/12 13:34:13;;;;;;;;;;;22.90;87.30;;;;;;5052793;28;19966;-72
2022/04/12 13:36:39;;;;;;;;;;;22.90;87.50;;;;;;5071440;28;20372;-72
2022/04/12 13:39:05;;;;;;;;;;;23.00;89.80;;;;;;5071736;28;19940;-71
2022/04/12 13:41:31;;;;;;;;;;;23.20;88.10;;;;;;5050658;28;19943;-71
2022/04/12 13:43:57;;;;;;;;;;;23.30;86.10;;;;;;5055977;28;19913;-71
2022/04/12 13:46:22;;;;;;;;;;;23.10;85.70;;;;;;5073102;28;20013;-71
2022/04/12 13:48:48;;;;;;;;;;;23.00;84.30;;;;;;5074117;28;19927;-71
2022/04/12 13:51:14;;;;;;;;;;;22.60;86.40;;;;;;5074733;28;19974;-71
2022/04/12 13:53:39;;;;;;;;;;;22.70;87.30;;;;;;5075492;28;19959;-71
2022/04/12 13:56:05;;;;;;;;;;;23.00;87.60;;;;;;5056520;28;19944;-71
2022/04/12 13:58:30;;;;;;;;;;;23.20;88.00;;;;;;5074194;28;20234;-71
2022/04/12 14:00:56;;;;;;;;;;;23.50;88.50;;;;;;5074493;28;19924;-77
2022/04/12 14:03:22;;;;;;;;;;;23.60;84.40;;;;;;5073904;28;20222;-77
2022/04/12 14:05:50;;;;;;;;;;;23.30;84.30;;;;;;5075440;28;19920;-78
2022/04/12 14:08:16;;;;;;;;;;;23.10;85.50;;;;;;5074846;28;19920;-78
2022/04/12 14:10:41;;;;;;;;;;;23.10;85.20;;;;;;5074410;28;20227;-71
2022/04/12 14:13:07;;;;;;;;;;;23.00;84.40;;;;;;5074278;28;20370;-78
2022/04/12 14:15:33;;;;;;;;;;;23.10;85.20;;;;;;5073100;28;19959;-79
2022/04/12 14:17:59;;;;;;;;;;;23.00;84.90;;;;;;5073855;28;20230;-72
2022/04/12 14:20:26;;;;;;;;;;;23.20;85.20;;;;;;5074019;28;19931;-78
2022/04/12 14:22:52;;;;;;;;;;;23.20;85.80;;;;;;5074764;28;19916;-77